createdAt,value
2019-03-21T00:01:30.771Z,94.70
2019-03-21T00:04:03.453Z,94.00
2019-03-21T00:06:33.501Z,95.00
2019-03-21T00:09:05.307Z,93.80
2019-03-21T00:12:09.255Z,93.90
2019-03-21T00:14:57.808Z,93.90
2019-03-21T00:17:31.008Z,94.60
2019-03-21T00:20:01.051Z,94.50
2019-03-21T00:22:31.142Z,95.10
2019-03-21T00:25:01.186Z,94.20
2019-03-21T00:27:31.287Z,95.00
2019-03-21T00:30:01.304Z,94.50
2019-03-21T00:32:31.324Z,94.50
2019-03-21T00:35:01.338Z,94.50
2019-03-21T00:37:31.402Z,94.30
2019-03-21T00:40:01.427Z,95.00
2019-03-21T00:42:31.481Z,94.20
2019-03-21T00:45:01.517Z,94.90
2019-03-21T00:47:31.599Z,94.90
2019-03-21T00:50:01.640Z,94.80
2019-03-21T00:52:31.661Z,94.80
2019-03-21T00:55:01.697Z,94.80
2019-03-21T00:57:31.786Z,94.70
2019-03-21T01:00:01.826Z,94.90
2019-03-21T01:02:31.907Z,95.10
2019-03-21T01:05:01.991Z,95.60
2019-03-21T01:07:32.031Z,95.20
2019-03-21T01:10:02.103Z,95.20
2019-03-21T01:12:32.194Z,95.30
2019-03-21T01:15:02.367Z,94.90
2019-03-21T01:17:32.388Z,94.80
2019-03-21T01:20:02.439Z,95.20
2019-03-21T01:22:32.484Z,94.80
2019-03-21T01:25:02.521Z,94.70
2019-03-21T01:27:32.705Z,94.80
2019-03-21T01:30:02.752Z,94.60
2019-03-21T01:32:32.819Z,94.90
2019-03-21T01:35:02.865Z,95.10
2019-03-21T01:37:32.963Z,95.40
2019-03-21T01:40:02.992Z,94.90
2019-03-21T01:42:33.050Z,95.10
2019-03-21T01:45:03.121Z,95.00
2019-03-21T01:47:33.160Z,94.90
2019-03-21T01:50:03.238Z,95.60
2019-03-21T01:52:33.262Z,95.00
2019-03-21T01:55:03.312Z,95.20
2019-03-21T01:57:33.442Z,95.10
2019-03-21T02:00:03.495Z,95.20
2019-03-21T02:02:33.549Z,95.00
2019-03-21T02:05:03.591Z,95.20
2019-03-21T02:07:33.665Z,95.20
2019-03-21T02:10:03.926Z,95.00
2019-03-21T02:12:34.054Z,95.70
2019-03-21T02:15:04.214Z,95.20
2019-03-21T02:17:34.258Z,95.20
2019-03-21T02:20:04.821Z,95.30
2019-03-21T02:22:34.845Z,95.10
2019-03-21T02:25:05.515Z,95.10
2019-03-21T02:27:35.663Z,95.40
2019-03-21T02:30:07.856Z,94.80
2019-03-21T02:32:37.971Z,95.30
2019-03-21T02:35:08.291Z,95.20
2019-03-21T02:37:38.366Z,95.20
2019-03-21T02:40:11.378Z,95.10
2019-03-21T02:42:41.442Z,95.00
2019-03-21T02:45:12.811Z,95.20
2019-03-21T02:47:42.895Z,96.60
2019-03-21T02:50:24.790Z,96.00
2019-03-21T02:52:54.864Z,95.70
2019-03-21T02:55:25.304Z,95.30
2019-03-21T02:57:55.390Z,95.50
2019-03-21T03:00:26.160Z,96.30
2019-03-21T03:02:58.295Z,95.90
2019-03-21T03:05:29.514Z,95.90
2019-03-21T03:07:59.615Z,96.80
2019-03-21T03:10:35.925Z,96.40
2019-03-21T03:13:05.994Z,96.20
2019-03-21T03:15:36.078Z,96.60
2019-03-21T03:18:06.529Z,96.20
2019-03-21T03:20:36.545Z,95.90
2019-03-21T03:23:06.575Z,96.50
2019-03-21T03:25:36.643Z,95.50
2019-03-21T03:28:10.115Z,95.80
2019-03-21T03:30:40.141Z,96.10
2019-03-21T03:33:10.199Z,96.80
2019-03-21T03:35:40.291Z,96.40
2019-03-21T03:38:10.342Z,96.10
2019-03-21T03:40:43.174Z,96.60
2019-03-21T03:43:13.220Z,95.90
2019-03-21T03:45:43.319Z,95.90
2019-03-21T03:48:13.464Z,95.50
2019-03-21T03:50:43.541Z,96.20
2019-03-21T03:53:13.581Z,96.00
2019-03-21T03:55:43.618Z,95.90
2019-03-21T03:58:14.970Z,96.20
2019-03-21T04:00:45.015Z,96.90
2019-03-21T04:03:15.063Z,96.20
2019-03-21T04:05:45.094Z,95.90
2019-03-21T04:08:15.263Z,96.20
2019-03-21T04:10:45.915Z,96.50
2019-03-21T04:13:15.967Z,97.00
2019-03-21T04:15:52.685Z,97.50
2019-03-21T04:18:18.169Z,96.60
2019-03-21T04:20:48.759Z,95.90
2019-03-21T04:23:19.526Z,97.00
2019-03-21T04:25:52.782Z,96.00
2019-03-21T04:28:22.857Z,96.10
2019-03-21T04:30:52.890Z,96.70
2019-03-21T04:33:23.205Z,96.20
2019-03-21T04:35:59.113Z,97.70
2019-03-21T04:38:29.135Z,96.50
2019-03-21T04:40:59.198Z,96.10
2019-03-21T04:43:29.245Z,95.80
2019-03-21T04:46:03.760Z,95.90
2019-03-21T04:48:30.991Z,97.70
2019-03-21T04:51:01.051Z,96.20
2019-03-21T04:53:31.059Z,96.50
2019-03-21T04:56:01.096Z,96.20
2019-03-21T04:58:31.158Z,97.10
2019-03-21T05:01:01.501Z,96.30
2019-03-21T05:03:31.544Z,96.40
2019-03-21T05:06:01.581Z,96.10
2019-03-21T05:08:31.629Z,96.00
2019-03-21T05:11:01.670Z,96.50
2019-03-21T05:13:31.738Z,97.20
2019-03-21T05:16:01.805Z,97.60
2019-03-21T05:18:34.946Z,97.40
2019-03-21T05:21:05.509Z,96.90
2019-03-21T05:23:35.557Z,96.90
2019-03-21T05:26:05.738Z,96.90
2019-03-21T05:28:35.782Z,97.20
2019-03-21T05:31:09.042Z,97.60
2019-03-21T05:33:39.043Z,97.20
2019-03-21T05:36:09.105Z,97.60
2019-03-21T05:38:39.154Z,97.80
2019-03-21T05:41:09.195Z,96.80
2019-03-21T05:43:48.811Z,98.50
2019-03-21T05:46:26.632Z,97.50
2019-03-21T05:48:50.636Z,98.30
2019-03-21T05:51:20.725Z,97.90
2019-03-21T05:53:50.751Z,97.70
2019-03-21T05:56:20.798Z,97.40
2019-03-21T05:58:50.877Z,97.10
2019-03-21T06:01:20.919Z,98.00
2019-03-21T06:03:51.635Z,97.20
2019-03-21T06:06:26.305Z,97.00
2019-03-21T06:08:56.308Z,97.40
2019-03-21T06:11:26.341Z,97.20
2019-03-21T06:13:56.367Z,97.10
2019-03-21T06:16:37.060Z,97.80
2019-03-21T06:19:09.353Z,97.90
2019-03-21T06:21:47.049Z,97.60
2019-03-21T06:24:41.426Z,98.10
2019-03-21T06:27:16.661Z,97.10
2019-03-21T06:29:46.823Z,98.30
2019-03-21T06:32:16.868Z,98.20
2019-03-21T06:34:46.931Z,97.90
2019-03-21T06:37:16.978Z,98.40
2019-03-21T06:39:47.060Z,97.80
2019-03-21T06:42:17.137Z,97.60
2019-03-21T06:44:47.207Z,97.70
2019-03-21T06:47:17.254Z,98.60
2019-03-21T06:49:47.354Z,97.20
2019-03-21T06:52:17.422Z,98.20
2019-03-21T06:54:47.546Z,97.60
2019-03-21T06:57:22.436Z,97.40
2019-03-21T06:59:52.641Z,98.00
2019-03-21T07:02:22.744Z,97.90
2019-03-21T07:04:52.801Z,97.90
2019-03-21T07:07:22.847Z,98.00
2019-03-21T07:09:52.923Z,97.40
2019-03-21T07:12:22.981Z,98.10
2019-03-21T07:14:53.032Z,98.60
2019-03-21T07:17:23.201Z,97.70
2019-03-21T07:19:54.462Z,98.20
2019-03-21T07:22:24.904Z,98.70
2019-03-21T07:24:55.163Z,97.90
2019-03-21T07:27:25.441Z,97.50
2019-03-21T07:29:55.519Z,98.00
2019-03-21T07:32:33.262Z,97.20
2019-03-21T07:34:57.598Z,98.20
2019-03-21T07:37:27.833Z,97.70
2019-03-21T07:39:57.979Z,97.60
2019-03-21T07:42:28.127Z,97.50
2019-03-21T07:44:58.307Z,97.90
2019-03-21T07:47:28.362Z,97.40
2019-03-21T07:49:58.418Z,97.70
2019-03-21T07:52:28.457Z,97.70
2019-03-21T07:54:58.467Z,97.20
2019-03-21T07:57:28.532Z,97.40
2019-03-21T07:59:58.569Z,97.20
2019-03-21T08:02:28.600Z,97.30
2019-03-21T08:05:00.737Z,97.20
2019-03-21T08:07:30.794Z,97.40
2019-03-21T08:10:00.865Z,97.70
2019-03-21T08:12:30.927Z,97.50
2019-03-21T08:15:00.992Z,97.60
2019-03-21T08:17:31.021Z,97.50
2019-03-21T08:20:01.081Z,97.40
2019-03-21T08:22:31.129Z,97.30
2019-03-21T08:25:01.209Z,97.20
2019-03-21T08:27:31.287Z,97.30
2019-03-21T08:30:01.336Z,96.90
2019-03-21T08:32:31.390Z,97.10
2019-03-21T08:35:01.482Z,97.10
2019-03-21T08:37:31.537Z,97.40
2019-03-21T08:40:01.659Z,97.30
2019-03-21T08:42:31.668Z,97.40
2019-03-21T08:45:01.742Z,97.20
2019-03-21T08:47:31.776Z,97.20
2019-03-21T08:50:01.842Z,96.90
2019-03-21T08:52:31.857Z,96.90
2019-03-21T08:55:02.117Z,97.00
2019-03-21T08:57:32.167Z,96.80
2019-03-21T09:00:07.713Z,96.60
2019-03-21T09:02:37.998Z,96.80
2019-03-21T09:05:08.680Z,96.80
2019-03-21T09:07:38.750Z,96.70
2019-03-21T09:10:09.323Z,96.50
2019-03-21T09:12:39.453Z,96.50
2019-03-21T09:15:09.889Z,96.20
2019-03-21T09:17:40.077Z,96.30
2019-03-21T09:20:10.637Z,96.20
2019-03-21T09:22:40.668Z,96.20
2019-03-21T09:25:11.432Z,96.10
2019-03-21T09:27:41.498Z,95.90
2019-03-21T09:30:11.626Z,95.80
2019-03-21T09:32:41.655Z,95.70
2019-03-21T09:35:12.539Z,95.70
2019-03-21T09:37:42.729Z,95.80
2019-03-21T09:40:13.819Z,95.70
2019-03-21T09:42:43.890Z,95.70
2019-03-21T09:45:14.079Z,95.70
2019-03-21T09:47:44.106Z,95.30
2019-03-21T09:50:18.780Z,95.10
2019-03-21T09:52:48.780Z,95.30
2019-03-21T09:55:18.845Z,95.30
2019-03-21T09:57:48.852Z,95.20
2019-03-21T10:00:28.663Z,94.90
2019-03-21T10:02:58.729Z,95.00
2019-03-21T10:05:28.799Z,95.10
2019-03-21T10:07:59.697Z,95.10
2019-03-21T10:10:31.164Z,95.10
2019-03-21T10:13:01.232Z,95.10
2019-03-21T10:15:31.287Z,94.80
2019-03-21T10:18:01.355Z,95.00
2019-03-21T10:20:31.422Z,95.00
2019-03-21T10:23:01.461Z,94.80
2019-03-21T10:25:31.533Z,94.80
2019-03-21T10:28:01.612Z,94.80
2019-03-21T10:30:41.973Z,94.90
2019-03-21T10:33:13.646Z,94.70
2019-03-21T10:35:44.139Z,95.10
2019-03-21T10:38:14.155Z,94.60
2019-03-21T10:40:44.186Z,94.50
2019-03-21T10:43:14.307Z,94.30
2019-03-21T10:45:44.333Z,94.70
2019-03-21T10:48:14.352Z,94.60
2019-03-21T10:50:44.555Z,94.40
2019-03-21T10:53:14.584Z,94.20
2019-03-21T10:55:44.618Z,94.20
2019-03-21T10:58:15.570Z,93.90
2019-03-21T11:00:45.752Z,93.80
2019-03-21T11:03:15.845Z,93.60
2019-03-21T11:05:46.014Z,93.80
2019-03-21T11:08:16.146Z,94.10
2019-03-21T11:10:47.339Z,93.90
2019-03-21T11:13:17.483Z,94.10
2019-03-21T11:15:47.570Z,93.90
2019-03-21T11:18:17.696Z,93.60
2019-03-21T11:20:47.840Z,93.80
2019-03-21T11:23:17.989Z,93.70
2019-03-21T11:25:48.152Z,93.80
2019-03-21T11:28:18.350Z,93.50
2019-03-21T11:30:48.440Z,93.50
2019-03-21T11:33:18.557Z,93.80
2019-03-21T11:35:48.692Z,93.50
2019-03-21T11:38:18.763Z,93.40
2019-03-21T11:40:48.990Z,93.80
2019-03-21T11:43:20.174Z,93.60
2019-03-21T11:45:50.357Z,94.00
2019-03-21T11:48:20.443Z,93.60
2019-03-21T11:50:50.505Z,93.60
2019-03-21T11:53:20.584Z,93.70
2019-03-21T11:55:50.670Z,93.70
2019-03-21T11:58:20.722Z,93.70
2019-03-21T12:00:50.791Z,93.30
2019-03-21T12:03:20.881Z,93.90
2019-03-21T12:05:50.919Z,93.50
2019-03-21T12:08:20.975Z,93.40
2019-03-21T12:10:51.023Z,93.30
2019-03-21T12:13:21.183Z,93.50
2019-03-21T12:15:51.211Z,93.50
2019-03-21T12:18:21.277Z,93.50
2019-03-21T12:20:51.290Z,92.70
2019-03-21T12:23:21.331Z,93.40
2019-03-21T12:25:51.361Z,93.70
2019-03-21T12:28:21.354Z,92.80
2019-03-21T12:30:51.467Z,93.40
2019-03-21T12:33:21.580Z,93.10
2019-03-21T12:35:51.614Z,92.90
2019-03-21T12:38:21.649Z,92.20
2019-03-21T12:40:51.699Z,92.20
2019-03-21T12:43:21.850Z,92.60
2019-03-21T12:45:52.338Z,92.10
2019-03-21T12:48:22.437Z,92.10
2019-03-21T12:50:52.604Z,92.50
2019-03-21T12:53:22.745Z,92.10
2019-03-21T12:55:52.955Z,91.60
2019-03-21T12:58:23.051Z,91.40
2019-03-21T13:00:53.541Z,92.10
2019-03-21T13:03:23.712Z,92.00
2019-03-21T13:05:54.087Z,91.70
2019-03-21T13:08:33.386Z,92.20
2019-03-21T13:10:56.197Z,91.90
2019-03-21T13:13:26.302Z,92.30
2019-03-21T13:15:56.391Z,91.70
2019-03-21T13:18:26.582Z,92.10
2019-03-21T13:20:56.696Z,92.00
2019-03-21T13:23:27.071Z,92.30
2019-03-21T13:25:57.310Z,91.70
2019-03-21T13:28:27.411Z,91.70
2019-03-21T13:30:57.440Z,90.20
2019-03-21T13:33:27.464Z,91.30
2019-03-21T13:35:57.503Z,90.70
2019-03-21T13:38:27.552Z,91.70
2019-03-21T13:40:57.630Z,91.40
2019-03-21T13:43:27.654Z,91.20
2019-03-21T13:45:57.720Z,90.40
2019-03-21T13:48:27.764Z,90.20
2019-03-21T13:50:57.790Z,90.20
2019-03-21T13:53:27.869Z,91.00
2019-03-21T13:55:57.944Z,89.50
2019-03-21T13:58:27.950Z,91.00
2019-03-21T14:00:58.020Z,90.80
2019-03-21T14:03:28.074Z,92.20
2019-03-21T14:05:58.165Z,91.50
2019-03-21T14:08:28.203Z,90.00
2019-03-21T14:10:58.260Z,90.00
2019-03-21T14:13:28.321Z,90.00
2019-03-21T14:15:58.374Z,90.70
2019-03-21T14:18:28.390Z,90.10
2019-03-21T14:20:58.481Z,90.50
2019-03-21T14:23:28.505Z,90.40
2019-03-21T14:25:58.578Z,89.40
2019-03-21T14:28:28.654Z,90.40
2019-03-21T14:30:58.705Z,90.10
2019-03-21T14:33:28.761Z,90.20
2019-03-21T14:35:58.821Z,90.50
2019-03-21T14:38:28.854Z,90.80
2019-03-21T14:40:58.934Z,91.40
2019-03-21T14:43:28.992Z,90.10
2019-03-21T14:45:59.082Z,89.90
2019-03-21T14:48:31.893Z,90.40
2019-03-21T14:51:01.971Z,90.30
2019-03-21T14:53:32.009Z,90.20
2019-03-21T14:56:02.047Z,90.50
2019-03-21T14:58:32.111Z,90.60
2019-03-21T15:01:02.228Z,91.20
2019-03-21T15:03:32.286Z,91.00
2019-03-21T15:06:02.399Z,90.30
2019-03-21T15:08:32.420Z,91.40
2019-03-21T15:11:02.423Z,90.40
2019-03-21T15:13:32.601Z,90.40
2019-03-21T15:16:02.658Z,90.30
2019-03-21T15:18:32.691Z,91.10
2019-03-21T15:21:02.760Z,90.50
2019-03-21T15:23:40.606Z,91.00
2019-03-21T15:26:04.727Z,90.60
2019-03-21T15:28:34.856Z,90.70
2019-03-21T15:31:04.975Z,91.00
2019-03-21T15:33:35.091Z,91.10
2019-03-21T15:36:05.136Z,90.30
2019-03-21T15:38:35.186Z,91.20
2019-03-21T15:41:06.922Z,90.50
2019-03-21T15:43:37.127Z,90.60
2019-03-21T15:46:07.361Z,90.70
2019-03-21T15:48:37.472Z,91.50
2019-03-21T15:51:07.688Z,90.70
2019-03-21T15:53:39.456Z,90.90
2019-03-21T15:56:09.570Z,90.60
2019-03-21T15:58:39.712Z,90.70
2019-03-21T16:01:09.886Z,91.10
2019-03-21T16:03:40.039Z,91.00
2019-03-21T16:06:10.174Z,91.10
2019-03-21T16:08:40.371Z,91.40
2019-03-21T16:11:10.578Z,91.20
2019-03-21T16:13:40.706Z,91.70
2019-03-21T16:16:10.816Z,91.40
2019-03-21T16:18:41.076Z,91.40
2019-03-21T16:21:11.261Z,91.50
2019-03-21T16:23:41.288Z,91.90
2019-03-21T16:26:11.386Z,91.50
2019-03-21T16:28:41.505Z,91.80
2019-03-21T16:31:11.587Z,91.40
2019-03-21T16:33:43.390Z,91.60
2019-03-21T16:36:13.635Z,91.60
2019-03-21T16:38:43.728Z,91.90
2019-03-21T16:41:13.782Z,92.00
2019-03-21T16:43:43.964Z,92.00
2019-03-21T16:46:14.135Z,91.90
2019-03-21T16:48:44.252Z,92.30
2019-03-21T16:51:14.387Z,92.00
2019-03-21T16:53:44.703Z,92.10
2019-03-21T16:56:14.852Z,92.20
2019-03-21T16:58:45.173Z,92.00
2019-03-21T17:01:15.400Z,92.10
2019-03-21T17:03:45.604Z,92.10
2019-03-21T17:06:16.014Z,92.20
2019-03-21T17:08:46.088Z,92.40
2019-03-21T17:11:16.288Z,92.30
2019-03-21T17:13:46.516Z,92.20
2019-03-21T17:16:16.718Z,92.20
2019-03-21T17:18:46.902Z,92.40
2019-03-21T17:21:17.019Z,92.40
2019-03-21T17:23:47.292Z,92.40
2019-03-21T17:26:17.455Z,92.60
2019-03-21T17:28:47.599Z,93.10
2019-03-21T17:31:17.725Z,92.60
2019-03-21T17:33:47.820Z,92.60
2019-03-21T17:36:20.638Z,92.80
2019-03-21T17:38:49.776Z,92.60
2019-03-21T17:41:20.000Z,92.50
2019-03-21T17:43:50.153Z,92.70
2019-03-21T17:46:20.212Z,92.60
2019-03-21T17:48:50.338Z,92.50
2019-03-21T17:51:20.459Z,92.60
2019-03-21T17:53:50.555Z,92.70
2019-03-21T17:56:20.710Z,92.70
2019-03-21T17:58:50.801Z,92.70
2019-03-21T18:01:21.422Z,92.70
2019-03-21T18:03:51.718Z,92.80
2019-03-21T18:06:21.919Z,92.80
2019-03-21T18:08:52.139Z,92.90
2019-03-21T18:11:22.257Z,92.90
2019-03-21T18:13:52.494Z,93.20
2019-03-21T18:16:22.584Z,93.00
2019-03-21T18:18:52.604Z,93.00
2019-03-21T18:21:22.822Z,93.10
2019-03-21T18:23:52.886Z,93.00
2019-03-21T18:26:23.098Z,93.20
2019-03-21T18:28:53.233Z,93.10
2019-03-21T18:31:23.295Z,93.10
2019-03-21T18:33:53.478Z,93.30
2019-03-21T18:36:24.222Z,93.20
2019-03-21T18:38:59.389Z,93.00
2019-03-21T18:41:26.218Z,93.10
2019-03-21T18:43:56.380Z,93.20
2019-03-21T18:46:26.508Z,93.30
2019-03-21T18:48:56.583Z,93.30
2019-03-21T18:51:26.694Z,93.20
2019-03-21T18:53:56.818Z,93.30
2019-03-21T18:56:26.897Z,93.30
2019-03-21T18:58:56.993Z,93.30
2019-03-21T19:01:27.118Z,93.40
2019-03-21T19:03:57.295Z,93.50
2019-03-21T19:06:27.578Z,93.40
2019-03-21T19:08:57.945Z,93.40
2019-03-21T19:11:28.041Z,93.40
2019-03-21T19:13:59.349Z,93.50
2019-03-21T19:16:31.924Z,93.50
2019-03-21T19:19:01.227Z,93.50
2019-03-21T19:21:31.330Z,93.80
2019-03-21T19:24:01.470Z,94.00
2019-03-21T19:26:31.669Z,95.40
2019-03-21T19:29:01.648Z,96.50
2019-03-21T19:31:31.824Z,94.80
2019-03-21T19:34:01.885Z,95.30
2019-03-21T19:36:32.130Z,94.40
2019-03-21T19:39:02.318Z,95.90
2019-03-21T19:41:32.473Z,96.80
2019-03-21T19:44:02.535Z,97.20
2019-03-21T19:46:32.571Z,97.30
2019-03-21T19:49:02.752Z,95.00
2019-03-21T19:51:32.838Z,94.20
2019-03-21T19:54:02.981Z,94.10
2019-03-21T19:56:33.036Z,94.00
2019-03-21T19:59:03.203Z,93.90
2019-03-21T20:01:33.256Z,93.80
2019-03-21T20:04:03.409Z,93.90
2019-03-21T20:06:33.503Z,93.90
2019-03-21T20:09:03.881Z,94.30
2019-03-21T20:11:33.967Z,96.00
2019-03-21T20:14:04.256Z,97.30
2019-03-21T20:16:34.371Z,97.00
2019-03-21T20:19:05.415Z,97.70
2019-03-21T20:21:47.144Z,98.00
2019-03-21T20:24:07.325Z,94.60
2019-03-21T20:26:37.401Z,94.30
2019-03-21T20:29:07.616Z,97.60
2019-03-21T20:31:37.709Z,97.60
2019-03-21T20:34:07.816Z,95.00
2019-03-21T20:36:37.925Z,96.70
2019-03-21T20:39:08.860Z,97.70
2019-03-21T20:41:38.983Z,94.70
2019-03-21T20:44:14.989Z,97.20
2019-03-21T20:46:40.975Z,97.80
2019-03-21T20:49:11.197Z,95.40
2019-03-21T20:51:41.319Z,94.50
2019-03-21T20:54:11.524Z,94.30
2019-03-21T20:56:41.628Z,95.70
2019-03-21T20:59:11.723Z,94.40
2019-03-21T21:01:41.775Z,94.40
2019-03-21T21:04:11.845Z,94.30
2019-03-21T21:06:41.947Z,96.30
2019-03-21T21:09:11.966Z,97.40
2019-03-21T21:11:42.069Z,95.30
2019-03-21T21:14:12.215Z,94.70
2019-03-21T21:16:42.575Z,97.40
2019-03-21T21:19:12.660Z,98.60
2019-03-21T21:21:42.745Z,99.00
2019-03-21T21:24:12.791Z,99.20
2019-03-21T21:26:42.964Z,99.10
2019-03-21T21:29:13.003Z,99.10
2019-03-21T21:31:43.111Z,98.80
2019-03-21T21:34:13.157Z,96.00
2019-03-21T21:36:43.377Z,94.90
2019-03-21T21:39:13.435Z,94.80
2019-03-21T21:41:43.570Z,98.10
2019-03-21T21:44:13.667Z,98.30
2019-03-21T21:46:43.849Z,98.60
2019-03-21T21:49:14.062Z,96.60
2019-03-21T21:51:44.033Z,97.40
2019-03-21T21:54:14.235Z,95.40
2019-03-21T21:56:44.414Z,95.00
2019-03-21T21:59:14.586Z,95.00
2019-03-21T22:01:44.691Z,95.50
2019-03-21T22:04:14.780Z,94.80
2019-03-21T22:06:45.006Z,95.30
2019-03-21T22:09:15.095Z,98.50
2019-03-21T22:11:45.203Z,95.10
2019-03-21T22:14:15.224Z,98.10
2019-03-21T22:16:45.389Z,98.90
2019-03-21T22:19:15.463Z,96.40
2019-03-21T22:21:45.510Z,99.20
2019-03-21T22:24:15.505Z,99.60
2019-03-21T22:26:45.587Z,99.80
2019-03-21T22:29:15.623Z,99.80
2019-03-21T22:31:45.751Z,99.80
2019-03-21T22:34:15.766Z,99.20
2019-03-21T22:36:49.634Z,96.10
2019-03-21T22:39:17.510Z,95.60
2019-03-21T22:41:48.817Z,97.30
2019-03-21T22:44:21.823Z,98.30
2019-03-21T22:47:01.195Z,99.40
2019-03-21T22:49:36.980Z,99.60
2019-03-21T22:52:12.027Z,99.80
2019-03-21T22:54:45.383Z,99.70
2019-03-21T22:57:15.450Z,99.70
2019-03-21T22:59:45.496Z,99.90
2019-03-21T23:02:15.515Z,99.70
2019-03-21T23:04:45.555Z,99.90
2019-03-21T23:07:15.543Z,99.60
2019-03-21T23:09:45.588Z,99.70
2019-03-21T23:12:15.621Z,99.60
2019-03-21T23:14:45.686Z,99.80
2019-03-21T23:17:15.711Z,99.00
2019-03-21T23:19:45.781Z,98.40
2019-03-21T23:22:15.870Z,99.60
2019-03-21T23:24:45.854Z,99.80
2019-03-21T23:27:15.869Z,99.80
2019-03-21T23:29:45.901Z,99.80
2019-03-21T23:32:15.944Z,99.90
2019-03-21T23:34:46.006Z,99.90
2019-03-21T23:37:16.055Z,99.90
2019-03-21T23:39:46.137Z,99.90
2019-03-21T23:42:16.152Z,99.90
2019-03-21T23:44:46.216Z,99.90
2019-03-21T23:47:16.263Z,99.90
2019-03-21T23:49:46.281Z,99.90
2019-03-21T23:52:16.359Z,98.20
2019-03-21T23:54:47.949Z,99.90
2019-03-21T23:57:17.982Z,99.90
2019-03-21T23:59:48.042Z,99.90
